sensor_id;sensor_type;location;lat;lon;timestamp;P1;durP1;ratioP1;P2;durP2;ratioP2
11957;SDS011;6039;52.576;13.348;2024-02-28T00:02:31;17.33;;;7.47;;
11957;SDS011;6039;52.576;13.348;2024-02-28T00:07:35;15.80;;;7.63;;
11957;SDS011;6039;52.576;13.348;2024-02-28T00:12:39;15.57;;;7.17;;
11957;SDS011;6039;52.576;13.348;2024-02-28T00:17:45;11.97;;;6.50;;
11957;SDS011;6039;52.576;13.348;2024-02-28T00:22:49;15.27;;;8.03;;
11957;SDS011;6039;52.576;13.348;2024-02-28T00:27:53;16.50;;;8.47;;
11957;SDS011;6039;52.576;13.348;2024-02-28T00:33:00;16.93;;;8.43;;
11957;SDS011;6039;52.576;13.348;2024-02-28T00:38:04;20.70;;;8.77;;
11957;SDS011;6039;52.576;13.348;2024-02-28T00:43:08;17.03;;;8.57;;
11957;SDS011;6039;52.576;13.348;2024-02-28T00:48:15;16.13;;;7.53;;
11957;SDS011;6039;52.576;13.348;2024-02-28T00:53:19;18.90;;;8.03;;
11957;SDS011;6039;52.576;13.348;2024-02-28T00:58:23;20.00;;;8.37;;
11957;SDS011;6039;52.576;13.348;2024-02-28T01:03:32;19.63;;;9.13;;
11957;SDS011;6039;52.576;13.348;2024-02-28T01:08:36;18.57;;;8.13;;
11957;SDS011;6039;52.576;13.348;2024-02-28T01:13:40;16.73;;;8.27;;
11957;SDS011;6039;52.576;13.348;2024-02-28T01:18:46;17.70;;;7.97;;
11957;SDS011;6039;52.576;13.348;2024-02-28T01:23:51;16.27;;;7.67;;
11957;SDS011;6039;52.576;13.348;2024-02-28T01:28:55;14.90;;;7.73;;
11957;SDS011;6039;52.576;13.348;2024-02-28T01:34:01;16.70;;;6.97;;
11957;SDS011;6039;52.576;13.348;2024-02-28T01:39:05;15.70;;;7.50;;
11957;SDS011;6039;52.576;13.348;2024-02-28T01:44:09;14.43;;;6.50;;
11957;SDS011;6039;52.576;13.348;2024-02-28T01:49:16;10.40;;;5.47;;
11957;SDS011;6039;52.576;13.348;2024-02-28T01:54:20;11.53;;;5.60;;
11957;SDS011;6039;52.576;13.348;2024-02-28T01:59:24;11.97;;;6.27;;
11957;SDS011;6039;52.576;13.348;2024-02-28T02:04:32;10.57;;;6.17;;
11957;SDS011;6039;52.576;13.348;2024-02-28T02:09:36;10.60;;;5.97;;
11957;SDS011;6039;52.576;13.348;2024-02-28T02:14:40;10.83;;;5.63;;
11957;SDS011;6039;52.576;13.348;2024-02-28T02:19:46;11.63;;;5.27;;
11957;SDS011;6039;52.576;13.348;2024-02-28T02:24:53;8.37;;;5.10;;
11957;SDS011;6039;52.576;13.348;2024-02-28T02:29:57;10.70;;;5.10;;
11957;SDS011;6039;52.576;13.348;2024-02-28T02:35:01;11.27;;;5.13;;
11957;SDS011;6039;52.576;13.348;2024-02-28T02:40:08;7.93;;;4.50;;
11957;SDS011;6039;52.576;13.348;2024-02-28T02:45:14;10.03;;;5.23;;
11957;SDS011;6039;52.576;13.348;2024-02-28T02:50:18;11.93;;;5.03;;
11957;SDS011;6039;52.576;13.348;2024-02-28T02:55:24;9.63;;;4.60;;
11957;SDS011;6039;52.576;13.348;2024-02-28T03:00:28;7.73;;;4.33;;
11957;SDS011;6039;52.576;13.348;2024-02-28T03:05:32;7.03;;;4.23;;
11957;SDS011;6039;52.576;13.348;2024-02-28T03:10:39;9.43;;;4.20;;
11957;SDS011;6039;52.576;13.348;2024-02-28T03:15:43;8.87;;;4.33;;
11957;SDS011;6039;52.576;13.348;2024-02-28T03:20:47;10.97;;;4.70;;
11957;SDS011;6039;52.576;13.348;2024-02-28T03:25:53;7.87;;;4.43;;
11957;SDS011;6039;52.576;13.348;2024-02-28T03:30:57;7.83;;;3.80;;
11957;SDS011;6039;52.576;13.348;2024-02-28T03:36:01;5.83;;;3.53;;
11957;SDS011;6039;52.576;13.348;2024-02-28T03:41:09;6.37;;;3.07;;
11957;SDS011;6039;52.576;13.348;2024-02-28T03:46:13;6.43;;;3.27;;
11957;SDS011;6039;52.576;13.348;2024-02-28T03:51:16;5.47;;;2.93;;
11957;SDS011;6039;52.576;13.348;2024-02-28T03:56:26;5.17;;;3.20;;
11957;SDS011;6039;52.576;13.348;2024-02-28T04:01:30;7.47;;;3.37;;
11957;SDS011;6039;52.576;13.348;2024-02-28T04:06:34;7.00;;;3.60;;
11957;SDS011;6039;52.576;13.348;2024-02-28T04:11:40;5.33;;;3.10;;
11957;SDS011;6039;52.576;13.348;2024-02-28T04:16:44;6.87;;;3.77;;
11957;SDS011;6039;52.576;13.348;2024-02-28T04:21:50;7.77;;;3.73;;
11957;SDS011;6039;52.576;13.348;2024-02-28T04:26:56;8.03;;;3.80;;
11957;SDS011;6039;52.576;13.348;2024-02-28T04:32:03;8.27;;;4.03;;
11957;SDS011;6039;52.576;13.348;2024-02-28T04:37:07;9.20;;;4.60;;
11957;SDS011;6039;52.576;13.348;2024-02-28T04:42:14;9.27;;;4.10;;
11957;SDS011;6039;52.576;13.348;2024-02-28T04:47:18;9.27;;;4.57;;
11957;SDS011;6039;52.576;13.348;2024-02-28T04:52:23;9.17;;;4.43;;
11957;SDS011;6039;52.576;13.348;2024-02-28T04:57:30;6.17;;;3.83;;
11957;SDS011;6039;52.576;13.348;2024-02-28T05:02:33;8.60;;;4.30;;
11957;SDS011;6039;52.576;13.348;2024-02-28T05:07:37;8.70;;;4.87;;
11957;SDS011;6039;52.576;13.348;2024-02-28T05:12:44;9.53;;;4.33;;
11957;SDS011;6039;52.576;13.348;2024-02-28T05:17:49;6.73;;;3.93;;
11957;SDS011;6039;52.576;13.348;2024-02-28T05:22:54;7.03;;;3.97;;
11957;SDS011;6039;52.576;13.348;2024-02-28T05:28:00;6.50;;;3.23;;
11957;SDS011;6039;52.576;13.348;2024-02-28T05:33:04;5.87;;;3.67;;
11957;SDS011;6039;52.576;13.348;2024-02-28T05:38:08;6.10;;;3.43;;
11957;SDS011;6039;52.576;13.348;2024-02-28T05:43:16;7.13;;;3.77;;
11957;SDS011;6039;52.576;13.348;2024-02-28T05:48:20;4.57;;;3.00;;
11957;SDS011;6039;52.576;13.348;2024-02-28T05:53:24;6.70;;;3.60;;
11957;SDS011;6039;52.576;13.348;2024-02-28T05:58:34;5.67;;;3.00;;
11957;SDS011;6039;52.576;13.348;2024-02-28T06:03:38;5.63;;;3.33;;
11957;SDS011;6039;52.576;13.348;2024-02-28T06:08:43;6.87;;;3.47;;
11957;SDS011;6039;52.576;13.348;2024-02-28T06:13:50;8.50;;;4.40;;
11957;SDS011;6039;52.576;13.348;2024-02-28T06:18:55;9.60;;;5.33;;
11957;SDS011;6039;52.576;13.348;2024-02-28T06:23:58;9.70;;;5.27;;
11957;SDS011;6039;52.576;13.348;2024-02-28T06:29:06;8.23;;;4.50;;
11957;SDS011;6039;52.576;13.348;2024-02-28T06:34:10;10.07;;;5.53;;
11957;SDS011;6039;52.576;13.348;2024-02-28T06:39:14;9.03;;;5.00;;
11957;SDS011;6039;52.576;13.348;2024-02-28T06:44:20;9.50;;;5.00;;
11957;SDS011;6039;52.576;13.348;2024-02-28T06:49:24;10.00;;;6.17;;
11957;SDS011;6039;52.576;13.348;2024-02-28T06:54:28;10.77;;;5.07;;
11957;SDS011;6039;52.576;13.348;2024-02-28T06:59:35;11.13;;;5.93;;
11957;SDS011;6039;52.576;13.348;2024-02-28T07:04:39;11.50;;;5.40;;
11957;SDS011;6039;52.576;13.348;2024-02-28T07:09:43;9.03;;;4.80;;
11957;SDS011;6039;52.576;13.348;2024-02-28T07:14:50;11.40;;;5.40;;
11957;SDS011;6039;52.576;13.348;2024-02-28T07:19:55;9.93;;;4.77;;
11957;SDS011;6039;52.576;13.348;2024-02-28T07:24:59;10.50;;;4.57;;
11957;SDS011;6039;52.576;13.348;2024-02-28T07:30:07;11.70;;;5.23;;
11957;SDS011;6039;52.576;13.348;2024-02-28T07:35:12;9.03;;;4.20;;
11957;SDS011;6039;52.576;13.348;2024-02-28T07:40:17;8.43;;;4.13;;
11957;SDS011;6039;52.576;13.348;2024-02-28T07:45:24;7.03;;;3.73;;
11957;SDS011;6039;52.576;13.348;2024-02-28T07:50:28;8.47;;;4.07;;
11957;SDS011;6039;52.576;13.348;2024-02-28T07:55:32;8.97;;;3.80;;
11957;SDS011;6039;52.576;13.348;2024-02-28T08:00:39;6.80;;;4.20;;
11957;SDS011;6039;52.576;13.348;2024-02-28T08:05:43;6.80;;;3.77;;
11957;SDS011;6039;52.576;13.348;2024-02-28T08:10:48;7.13;;;4.07;;
11957;SDS011;6039;52.576;13.348;2024-02-28T08:15:55;8.33;;;4.00;;
11957;SDS011;6039;52.576;13.348;2024-02-28T08:20:59;7.57;;;2.93;;
11957;SDS011;6039;52.576;13.348;2024-02-28T08:26:04;6.20;;;2.93;;
11957;SDS011;6039;52.576;13.348;2024-02-28T08:31:10;5.77;;;3.20;;
11957;SDS011;6039;52.576;13.348;2024-02-28T08:36:14;6.80;;;4.00;;
11957;SDS011;6039;52.576;13.348;2024-02-28T08:41:18;10.10;;;4.37;;
11957;SDS011;6039;52.576;13.348;2024-02-28T08:46:25;10.83;;;5.63;;
11957;SDS011;6039;52.576;13.348;2024-02-28T08:51:29;15.90;;;4.80;;
11957;SDS011;6039;52.576;13.348;2024-02-28T08:56:33;8.40;;;4.83;;
11957;SDS011;6039;52.576;13.348;2024-02-28T09:01:39;8.90;;;4.67;;
11957;SDS011;6039;52.576;13.348;2024-02-28T09:06:43;11.53;;;5.67;;
11957;SDS011;6039;52.576;13.348;2024-02-28T09:11:47;12.97;;;5.80;;
11957;SDS011;6039;52.576;13.348;2024-02-28T09:16:54;11.80;;;5.93;;
11957;SDS011;6039;52.576;13.348;2024-02-28T09:22:03;12.50;;;5.40;;
11957;SDS011;6039;52.576;13.348;2024-02-28T09:27:07;10.47;;;5.37;;
11957;SDS011;6039;52.576;13.348;2024-02-28T09:32:13;8.90;;;5.07;;
11957;SDS011;6039;52.576;13.348;2024-02-28T09:37:18;10.63;;;5.47;;
11957;SDS011;6039;52.576;13.348;2024-02-28T09:42:24;8.83;;;4.67;;
11957;SDS011;6039;52.576;13.348;2024-02-28T09:47:31;11.37;;;5.77;;
11957;SDS011;6039;52.576;13.348;2024-02-28T09:52:35;11.87;;;5.53;;
11957;SDS011;6039;52.576;13.348;2024-02-28T09:57:39;11.57;;;6.27;;
11957;SDS011;6039;52.576;13.348;2024-02-28T10:02:46;14.23;;;7.10;;
11957;SDS011;6039;52.576;13.348;2024-02-28T10:07:51;13.53;;;6.37;;
11957;SDS011;6039;52.576;13.348;2024-02-28T10:12:56;14.17;;;6.63;;
11957;SDS011;6039;52.576;13.348;2024-02-28T10:18:02;11.70;;;6.63;;
11957;SDS011;6039;52.576;13.348;2024-02-28T10:23:07;16.83;;;7.53;;
11957;SDS011;6039;52.576;13.348;2024-02-28T10:28:11;14.47;;;7.37;;
11957;SDS011;6039;52.576;13.348;2024-02-28T10:33:18;15.77;;;7.67;;
11957;SDS011;6039;52.576;13.348;2024-02-28T10:38:23;15.37;;;7.47;;
11957;SDS011;6039;52.576;13.348;2024-02-28T10:43:27;17.50;;;7.50;;
11957;SDS011;6039;52.576;13.348;2024-02-28T10:48:37;12.77;;;7.07;;
11957;SDS011;6039;52.576;13.348;2024-02-28T10:53:41;14.20;;;7.63;;
11957;SDS011;6039;52.576;13.348;2024-02-28T10:58:47;15.00;;;7.50;;
11957;SDS011;6039;52.576;13.348;2024-02-28T11:03:56;16.43;;;7.70;;
11957;SDS011;6039;52.576;13.348;2024-02-28T11:09:00;14.33;;;7.57;;
11957;SDS011;6039;52.576;13.348;2024-02-28T11:14:05;14.13;;;6.87;;
11957;SDS011;6039;52.576;13.348;2024-02-28T11:19:18;13.43;;;6.63;;
11957;SDS011;6039;52.576;13.348;2024-02-28T11:24:23;12.13;;;6.43;;
11957;SDS011;6039;52.576;13.348;2024-02-28T11:29:28;11.47;;;6.40;;
11957;SDS011;6039;52.576;13.348;2024-02-28T11:34:35;15.93;;;6.93;;
11957;SDS011;6039;52.576;13.348;2024-02-28T11:39:40;13.20;;;6.37;;
11957;SDS011;6039;52.576;13.348;2024-02-28T11:44:55;11.93;;;5.77;;
11957;SDS011;6039;52.576;13.348;2024-02-28T11:50:03;13.03;;;6.57;;
11957;SDS011;6039;52.576;13.348;2024-02-28T11:55:08;10.07;;;5.97;;
11957;SDS011;6039;52.576;13.348;2024-02-28T12:00:13;11.17;;;6.00;;
11957;SDS011;6039;52.576;13.348;2024-02-28T12:05:21;12.33;;;5.30;;
11957;SDS011;6039;52.576;13.348;2024-02-28T12:10:25;12.27;;;6.37;;
11957;SDS011;6039;52.576;13.348;2024-02-28T12:15:29;11.50;;;5.63;;
11957;SDS011;6039;52.576;13.348;2024-02-28T12:20:36;10.10;;;5.57;;
11957;SDS011;6039;52.576;13.348;2024-02-28T12:25:40;14.57;;;6.00;;
11957;SDS011;6039;52.576;13.348;2024-02-28T12:30:44;12.30;;;6.30;;
11957;SDS011;6039;52.576;13.348;2024-02-28T12:35:50;9.40;;;5.40;;
11957;SDS011;6039;52.576;13.348;2024-02-28T12:40:56;11.03;;;5.60;;
11957;SDS011;6039;52.576;13.348;2024-02-28T12:46:00;10.87;;;5.73;;
11957;SDS011;6039;52.576;13.348;2024-02-28T12:51:08;11.50;;;5.80;;
11957;SDS011;6039;52.576;13.348;2024-02-28T12:56:13;9.57;;;5.43;;
11957;SDS011;6039;52.576;13.348;2024-02-28T13:01:17;10.63;;;5.90;;
11957;SDS011;6039;52.576;13.348;2024-02-28T13:06:24;10.77;;;5.40;;
11957;SDS011;6039;52.576;13.348;2024-02-28T13:11:28;10.33;;;5.63;;
11957;SDS011;6039;52.576;13.348;2024-02-28T13:16:32;9.33;;;5.10;;
11957;SDS011;6039;52.576;13.348;2024-02-28T13:21:38;9.93;;;5.07;;
11957;SDS011;6039;52.576;13.348;2024-02-28T13:26:42;10.37;;;5.20;;
11957;SDS011;6039;52.576;13.348;2024-02-28T13:31:46;9.70;;;5.37;;
11957;SDS011;6039;52.576;13.348;2024-02-28T13:36:53;11.17;;;5.50;;
11957;SDS011;6039;52.576;13.348;2024-02-28T13:41:56;9.77;;;5.43;;
11957;SDS011;6039;52.576;13.348;2024-02-28T13:47:01;9.80;;;5.27;;
11957;SDS011;6039;52.576;13.348;2024-02-28T13:52:08;9.60;;;5.43;;
11957;SDS011;6039;52.576;13.348;2024-02-28T13:57:12;10.03;;;5.67;;
11957;SDS011;6039;52.576;13.348;2024-02-28T14:02:16;12.33;;;6.00;;
11957;SDS011;6039;52.576;13.348;2024-02-28T14:07:22;13.00;;;6.47;;
11957;SDS011;6039;52.576;13.348;2024-02-28T14:12:26;11.37;;;5.90;;
11957;SDS011;6039;52.576;13.348;2024-02-28T14:17:30;13.00;;;6.77;;
11957;SDS011;6039;52.576;13.348;2024-02-28T14:22:37;9.40;;;5.93;;
11957;SDS011;6039;52.576;13.348;2024-02-28T14:27:43;11.27;;;6.60;;
11957;SDS011;6039;52.576;13.348;2024-02-28T14:32:47;14.13;;;6.77;;
11957;SDS011;6039;52.576;13.348;2024-02-28T14:37:54;12.50;;;6.40;;
11957;SDS011;6039;52.576;13.348;2024-02-28T14:42:58;11.70;;;6.50;;
11957;SDS011;6039;52.576;13.348;2024-02-28T14:48:02;12.07;;;6.70;;
11957;SDS011;6039;52.576;13.348;2024-02-28T14:53:10;11.67;;;6.30;;
11957;SDS011;6039;52.576;13.348;2024-02-28T14:58:16;11.03;;;6.27;;
11957;SDS011;6039;52.576;13.348;2024-02-28T15:03:20;13.20;;;6.93;;
11957;SDS011;6039;52.576;13.348;2024-02-28T15:08:27;11.30;;;6.67;;
11957;SDS011;6039;52.576;13.348;2024-02-28T15:13:31;14.27;;;8.33;;
11957;SDS011;6039;52.576;13.348;2024-02-28T15:18:35;9.97;;;6.23;;
11957;SDS011;6039;52.576;13.348;2024-02-28T15:23:41;12.07;;;6.17;;
11957;SDS011;6039;52.576;13.348;2024-02-28T15:28:46;11.77;;;6.87;;
11957;SDS011;6039;52.576;13.348;2024-02-28T15:33:49;12.03;;;6.17;;
11957;SDS011;6039;52.576;13.348;2024-02-28T15:38:56;13.90;;;6.60;;
11957;SDS011;6039;52.576;13.348;2024-02-28T15:44:00;10.27;;;6.33;;
11957;SDS011;6039;52.576;13.348;2024-02-28T15:49:04;8.97;;;5.40;;
11957;SDS011;6039;52.576;13.348;2024-02-28T15:54:11;12.77;;;5.27;;
11957;SDS011;6039;52.576;13.348;2024-02-28T15:59:15;12.43;;;6.33;;
11957;SDS011;6039;52.576;13.348;2024-02-28T16:04:19;9.87;;;5.37;;
11957;SDS011;6039;52.576;13.348;2024-02-28T16:09:25;10.83;;;5.87;;
11957;SDS011;6039;52.576;13.348;2024-02-28T16:14:29;9.33;;;5.77;;
11957;SDS011;6039;52.576;13.348;2024-02-28T16:19:34;9.27;;;5.63;;
11957;SDS011;6039;52.576;13.348;2024-02-28T16:24:40;12.03;;;6.17;;
11957;SDS011;6039;52.576;13.348;2024-02-28T16:29:44;9.33;;;5.40;;
11957;SDS011;6039;52.576;13.348;2024-02-28T16:34:48;11.67;;;5.87;;
11957;SDS011;6039;52.576;13.348;2024-02-28T16:39:55;11.20;;;5.40;;
11957;SDS011;6039;52.576;13.348;2024-02-28T16:44:59;11.20;;;6.07;;
11957;SDS011;6039;52.576;13.348;2024-02-28T16:50:03;9.80;;;5.57;;
11957;SDS011;6039;52.576;13.348;2024-02-28T16:55:11;9.70;;;5.53;;
11957;SDS011;6039;52.576;13.348;2024-02-28T17:00:15;11.93;;;5.70;;
11957;SDS011;6039;52.576;13.348;2024-02-28T17:05:21;12.93;;;6.30;;
11957;SDS011;6039;52.576;13.348;2024-02-28T17:10:28;9.97;;;5.87;;
11957;SDS011;6039;52.576;13.348;2024-02-28T17:15:33;9.70;;;5.47;;
11957;SDS011;6039;52.576;13.348;2024-02-28T17:20:37;10.33;;;6.10;;
11957;SDS011;6039;52.576;13.348;2024-02-28T17:25:43;17.93;;;5.97;;
11957;SDS011;6039;52.576;13.348;2024-02-28T17:30:48;10.67;;;6.10;;
11957;SDS011;6039;52.576;13.348;2024-02-28T17:35:52;13.40;;;6.73;;
11957;SDS011;6039;52.576;13.348;2024-02-28T17:40:58;12.50;;;7.27;;
11957;SDS011;6039;52.576;13.348;2024-02-28T17:46:02;12.40;;;6.87;;
11957;SDS011;6039;52.576;13.348;2024-02-28T17:51:06;11.83;;;6.43;;
11957;SDS011;6039;52.576;13.348;2024-02-28T17:56:13;11.47;;;6.73;;
11957;SDS011;6039;52.576;13.348;2024-02-28T18:01:17;12.77;;;7.50;;
11957;SDS011;6039;52.576;13.348;2024-02-28T18:06:21;14.20;;;7.70;;
11957;SDS011;6039;52.576;13.348;2024-02-28T18:11:28;20.47;;;8.37;;
11957;SDS011;6039;52.576;13.348;2024-02-28T18:16:33;14.17;;;8.50;;
11957;SDS011;6039;52.576;13.348;2024-02-28T18:21:38;16.57;;;8.37;;
11957;SDS011;6039;52.576;13.348;2024-02-28T18:26:44;19.90;;;8.83;;
11957;SDS011;6039;52.576;13.348;2024-02-28T18:31:48;18.77;;;8.47;;
11957;SDS011;6039;52.576;13.348;2024-02-28T18:36:52;16.90;;;9.30;;
11957;SDS011;6039;52.576;13.348;2024-02-28T18:42:03;14.07;;;8.27;;
11957;SDS011;6039;52.576;13.348;2024-02-28T18:47:07;17.57;;;10.10;;
11957;SDS011;6039;52.576;13.348;2024-02-28T18:52:11;20.90;;;9.60;;
11957;SDS011;6039;52.576;13.348;2024-02-28T18:57:18;19.13;;;9.50;;
11957;SDS011;6039;52.576;13.348;2024-02-28T19:02:22;17.03;;;9.47;;
11957;SDS011;6039;52.576;13.348;2024-02-28T19:07:26;18.20;;;9.43;;
11957;SDS011;6039;52.576;13.348;2024-02-28T19:12:32;20.37;;;9.60;;
11957;SDS011;6039;52.576;13.348;2024-02-28T19:17:36;21.47;;;9.70;;
11957;SDS011;6039;52.576;13.348;2024-02-28T19:22:40;15.77;;;8.77;;
11957;SDS011;6039;52.576;13.348;2024-02-28T19:27:47;19.93;;;10.03;;
11957;SDS011;6039;52.576;13.348;2024-02-28T19:32:51;21.70;;;10.10;;
11957;SDS011;6039;52.576;13.348;2024-02-28T19:37:56;23.37;;;10.83;;
11957;SDS011;6039;52.576;13.348;2024-02-28T19:43:03;19.53;;;10.33;;
11957;SDS011;6039;52.576;13.348;2024-02-28T19:48:08;23.33;;;10.60;;
11957;SDS011;6039;52.576;13.348;2024-02-28T19:53:12;22.03;;;10.40;;
11957;SDS011;6039;52.576;13.348;2024-02-28T19:58:19;21.90;;;11.13;;
11957;SDS011;6039;52.576;13.348;2024-02-28T20:03:23;20.40;;;10.60;;
11957;SDS011;6039;52.576;13.348;2024-02-28T20:08:27;19.13;;;10.77;;
11957;SDS011;6039;52.576;13.348;2024-02-28T20:13:33;22.37;;;11.40;;
11957;SDS011;6039;52.576;13.348;2024-02-28T20:18:38;22.80;;;10.20;;
11957;SDS011;6039;52.576;13.348;2024-02-28T20:23:42;20.47;;;10.03;;
11957;SDS011;6039;52.576;13.348;2024-02-28T20:28:48;18.63;;;9.93;;
11957;SDS011;6039;52.576;13.348;2024-02-28T20:33:52;19.93;;;9.90;;
11957;SDS011;6039;52.576;13.348;2024-02-28T20:38:58;21.10;;;10.10;;
11957;SDS011;6039;52.576;13.348;2024-02-28T20:44:04;19.30;;;10.37;;
11957;SDS011;6039;52.576;13.348;2024-02-28T20:49:10;22.07;;;10.70;;
11957;SDS011;6039;52.576;13.348;2024-02-28T20:54:14;23.60;;;10.80;;
11957;SDS011;6039;52.576;13.348;2024-02-28T20:59:21;21.37;;;10.67;;
11957;SDS011;6039;52.576;13.348;2024-02-28T21:04:26;20.93;;;10.20;;
11957;SDS011;6039;52.576;13.348;2024-02-28T21:09:30;25.47;;;10.80;;
11957;SDS011;6039;52.576;13.348;2024-02-28T21:14:38;21.30;;;10.03;;
11957;SDS011;6039;52.576;13.348;2024-02-28T21:19:42;22.90;;;10.80;;
11957;SDS011;6039;52.576;13.348;2024-02-28T21:24:46;21.90;;;10.70;;
11957;SDS011;6039;52.576;13.348;2024-02-28T21:29:52;19.10;;;10.30;;
11957;SDS011;6039;52.576;13.348;2024-02-28T21:34:59;19.27;;;10.23;;
11957;SDS011;6039;52.576;13.348;2024-02-28T21:40:05;20.17;;;10.23;;
11957;SDS011;6039;52.576;13.348;2024-02-28T21:45:12;16.40;;;9.33;;
11957;SDS011;6039;52.576;13.348;2024-02-28T21:50:18;29.23;;;13.03;;
11957;SDS011;6039;52.576;13.348;2024-02-28T21:55:22;25.13;;;12.63;;
11957;SDS011;6039;52.576;13.348;2024-02-28T22:00:28;25.47;;;12.27;;
11957;SDS011;6039;52.576;13.348;2024-02-28T22:05:32;21.67;;;10.53;;
11957;SDS011;6039;52.576;13.348;2024-02-28T22:10:37;19.77;;;9.70;;
11957;SDS011;6039;52.576;13.348;2024-02-28T22:15:43;20.07;;;10.37;;
11957;SDS011;6039;52.576;13.348;2024-02-28T22:20:47;19.20;;;9.97;;
11957;SDS011;6039;52.576;13.348;2024-02-28T22:25:51;20.33;;;10.87;;
11957;SDS011;6039;52.576;13.348;2024-02-28T22:30:58;19.33;;;9.57;;
11957;SDS011;6039;52.576;13.348;2024-02-28T22:36:02;18.40;;;10.47;;
11957;SDS011;6039;52.576;13.348;2024-02-28T22:41:09;20.77;;;10.57;;
11957;SDS011;6039;52.576;13.348;2024-02-28T22:46:16;19.30;;;10.43;;
11957;SDS011;6039;52.576;13.348;2024-02-28T22:51:20;17.70;;;9.43;;
11957;SDS011;6039;52.576;13.348;2024-02-28T22:56:24;20.57;;;11.20;;
11957;SDS011;6039;52.576;13.348;2024-02-28T23:01:30;20.17;;;10.30;;
11957;SDS011;6039;52.576;13.348;2024-02-28T23:06:34;19.40;;;10.33;;
11957;SDS011;6039;52.576;13.348;2024-02-28T23:11:39;19.30;;;9.37;;
11957;SDS011;6039;52.576;13.348;2024-02-28T23:16:46;20.40;;;9.47;;
11957;SDS011;6039;52.576;13.348;2024-02-28T23:21:50;19.20;;;10.13;;
11957;SDS011;6039;52.576;13.348;2024-02-28T23:26:54;20.13;;;9.83;;
11957;SDS011;6039;52.576;13.348;2024-02-28T23:32:00;19.03;;;9.77;;
11957;SDS011;6039;52.576;13.348;2024-02-28T23:37:04;23.20;;;10.40;;
11957;SDS011;6039;52.576;13.348;2024-02-28T23:42:08;21.10;;;10.47;;
11957;SDS011;6039;52.576;13.348;2024-02-28T23:47:15;20.80;;;10.90;;
11957;SDS011;6039;52.576;13.348;2024-02-28T23:52:19;18.93;;;9.93;;
11957;SDS011;6039;52.576;13.348;2024-02-28T23:57:23;21.23;;;10.43;;
